Time;durP1;ratioP1;P1;durP2;ratioP2;P2;SDS_P1;SDS_P2;PMS_P1;PMS_P2;Temp;Humidity;BMP_temperature;BMP_pressure;BME280_temperature;BME280_humidity;BME280_pressure;Samples;Min_cycle;Max_cycle;Signal;HPM_P1;HPM_P2
2023/12/04 00:01:10;;;;;;;33.25;18.58;;;2.50;99.90;;;;;;4992712;28;20030;-78
2023/12/04 00:03:35;;;;;;;31.50;18.15;;;2.50;99.90;;;;;;4991444;28;20109;-77
2023/12/04 00:06:01;;;;;;;31.65;17.83;;;2.50;99.90;;;;;;4992872;28;20156;-77
2023/12/04 00:08:27;;;;;;;34.78;18.73;;;2.50;99.90;;;;;;4992717;28;20096;-76
2023/12/04 00:10:54;;;;;;;32.15;18.77;;;2.40;99.90;;;;;;4992523;28;20049;-76
2023/12/04 00:13:19;;;;;;;32.85;18.25;;;2.50;99.90;;;;;;4991710;28;20470;-75
2023/12/04 00:15:45;;;;;;;35.47;17.98;;;2.50;99.90;;;;;;4992686;28;20035;-75
2023/12/04 00:18:10;;;;;;;32.03;17.60;;;2.50;99.90;;;;;;4992423;28;20085;-75
2023/12/04 00:20:36;;;;;;;32.63;18.00;;;2.40;99.90;;;;;;4989369;28;20030;-75
2023/12/04 00:23:02;;;;;;;31.20;16.55;;;2.50;99.90;;;;;;4992662;28;20019;-74
2023/12/04 00:25:28;;;;;;;32.83;16.77;;;2.50;99.90;;;;;;4989891;28;20390;-74
2023/12/04 00:27:53;;;;;;;30.90;17.42;;;2.50;99.90;;;;;;4988276;28;20026;-75
2023/12/04 00:30:19;;;;;;;32.25;17.60;;;2.50;99.90;;;;;;4991271;28;20475;-75
2023/12/04 00:32:44;;;;;;;29.70;16.88;;;2.50;99.90;;;;;;4990796;28;20069;-74
2023/12/04 00:35:10;;;;;;;32.83;18.15;;;2.50;99.90;;;;;;4989340;28;20389;-75
2023/12/04 00:37:38;;;;;;;28.02;15.80;;;2.50;99.90;;;;;;4991603;28;20046;-75
2023/12/04 00:40:07;;;;;;;28.73;16.77;;;2.50;99.90;;;;;;4995757;28;20102;-79
2023/12/04 00:42:32;;;;;;;31.75;17.55;;;2.50;99.90;;;;;;4995830;28;20015;-76
2023/12/04 00:44:58;;;;;;;34.33;18.50;;;2.40;99.90;;;;;;4995876;28;20036;-76
2023/12/04 00:47:23;;;;;;;29.38;16.58;;;2.40;99.90;;;;;;4996556;28;20026;-78
2023/12/04 00:49:49;;;;;;;34.05;17.90;;;2.40;99.90;;;;;;4993579;28;20056;-77
2023/12/04 00:52:14;;;;;;;30.35;17.88;;;2.40;99.90;;;;;;4995362;28;20069;-76
2023/12/04 00:54:43;;;;;;;32.88;18.42;;;2.30;99.90;;;;;;4992963;28;20034;-78
2023/12/04 00:57:08;;;;;;;29.02;16.77;;;2.30;99.90;;;;;;4994807;28;20057;-77
2023/12/04 00:59:34;;;;;;;31.85;19.48;;;2.30;99.90;;;;;;4995530;28;20027;-77
2023/12/04 01:02:00;;;;;;;31.48;17.98;;;2.30;99.90;;;;;;4995391;28;20026;-76
2023/12/04 01:04:25;;;;;;;33.13;18.92;;;2.30;99.90;;;;;;4995408;28;20069;-76
2023/12/04 01:06:52;;;;;;;32.00;18.80;;;2.30;99.90;;;;;;4993249;28;20098;-77
2023/12/04 01:09:17;;;;;;;35.92;18.98;;;2.40;99.90;;;;;;4994899;28;20077;-78
2023/12/04 01:11:43;;;;;;;33.88;18.05;;;2.40;99.90;;;;;;4993187;28;20070;-76
2023/12/04 01:14:09;;;;;;;30.52;17.92;;;2.40;99.90;;;;;;4995468;28;20046;-76
2023/12/04 01:16:34;;;;;;;33.92;18.77;;;2.40;99.90;;;;;;4994908;28;20042;-77
2023/12/04 01:19:00;;;;;;;32.00;17.70;;;2.40;99.90;;;;;;4995298;28;20022;-77
2023/12/04 01:21:25;;;;;;;34.05;19.23;;;2.50;99.90;;;;;;4994213;28;20037;-77
2023/12/04 01:23:51;;;;;;;32.63;18.98;;;2.40;99.90;;;;;;4994686;28;20438;-76
2023/12/04 01:26:16;;;;;;;33.67;18.63;;;2.50;99.90;;;;;;4994557;28;20039;-77
2023/12/04 01:28:42;;;;;;;33.90;18.02;;;2.50;99.90;;;;;;4993055;28;20105;-77
2023/12/04 01:31:08;;;;;;;32.08;17.83;;;2.50;99.90;;;;;;4994129;28;20117;-76
2023/12/04 01:33:34;;;;;;;33.33;18.63;;;2.50;99.90;;;;;;4994683;28;20034;-75
2023/12/04 01:36:01;;;;;;;32.97;18.58;;;2.50;99.90;;;;;;4994248;28;20068;-75
2023/12/04 01:38:27;;;;;;;32.00;17.90;;;2.50;99.90;;;;;;4994476;28;20121;-75
2023/12/04 01:40:53;;;;;;;34.90;19.63;;;2.50;99.90;;;;;;4994426;28;20042;-74
2023/12/04 01:43:19;;;;;;;31.10;18.00;;;2.50;99.90;;;;;;4992643;28;20042;-75
2023/12/04 01:45:46;;;;;;;32.05;17.10;;;2.50;99.90;;;;;;4992352;28;20084;-74
2023/12/04 01:48:14;;;;;;;33.45;19.55;;;2.50;99.90;;;;;;4994828;28;20019;-74
2023/12/04 01:50:40;;;;;;;33.28;18.77;;;2.40;99.90;;;;;;4993245;28;20022;-73
2023/12/04 01:53:06;;;;;;;31.88;16.92;;;2.40;99.90;;;;;;4994710;28;20489;-74
2023/12/04 01:55:33;;;;;;;30.02;17.58;;;2.40;99.90;;;;;;4994539;28;20082;-74
2023/12/04 01:58:02;;;;;;;31.10;17.77;;;2.40;99.90;;;;;;4995308;28;20042;-74
2023/12/04 02:00:29;;;;;;;32.38;17.55;;;2.50;99.90;;;;;;4995291;28;20030;-75
2023/12/04 02:02:55;;;;;;;29.63;16.92;;;2.50;99.90;;;;;;4995262;28;20374;-74
2023/12/04 02:05:22;;;;;;;28.80;16.75;;;2.50;99.90;;;;;;4992933;28;20030;-74
2023/12/04 02:07:48;;;;;;;30.30;17.20;;;2.50;99.90;;;;;;4995004;28;20045;-75
2023/12/04 02:10:14;;;;;;;29.17;15.95;;;2.60;99.90;;;;;;4995160;28;20022;-74
2023/12/04 02:12:39;;;;;;;29.80;16.50;;;2.50;99.90;;;;;;4995050;28;20105;-74
2023/12/04 02:15:05;;;;;;;27.92;15.57;;;2.60;99.90;;;;;;4995090;28;20030;-74
2023/12/04 02:17:33;;;;;;;29.42;16.70;;;2.60;99.90;;;;;;4982783;28;20042;-75
2023/12/04 02:19:59;;;;;;;29.10;16.02;;;2.60;99.90;;;;;;4995425;28;20031;-74
2023/12/04 02:22:24;;;;;;;27.02;15.10;;;2.60;99.90;;;;;;4993540;28;20033;-74
2023/12/04 02:24:50;;;;;;;27.65;15.43;;;2.70;99.90;;;;;;4992865;28;20148;-74
2023/12/04 02:27:22;;;;;;;27.65;15.73;;;2.70;99.90;;;;;;4993045;28;20038;-74
2023/12/04 02:29:51;;;;;;;;;;;2.70;99.90;;;;;;4995267;28;20022;-75
2023/12/04 02:32:19;;;;;;;27.85;16.13;;;2.80;99.90;;;;;;4994914;28;19914;-75
2023/12/04 02:34:46;;;;;;;27.45;14.90;;;2.70;99.90;;;;;;4994533;28;20076;-74
2023/12/04 02:37:14;;;;;;;26.30;16.20;;;2.70;99.90;;;;;;4994674;28;20034;-75
2023/12/04 02:39:40;;;;;;;27.20;15.13;;;2.80;99.90;;;;;;4993425;28;20026;-75
2023/12/04 02:42:06;;;;;;;28.70;16.30;;;2.80;99.90;;;;;;4994764;28;20089;-75
2023/12/04 02:44:32;;;;;;;27.30;15.60;;;2.80;99.90;;;;;;4994318;28;20034;-75
2023/12/04 02:46:57;;;;;;;27.83;15.82;;;2.80;99.90;;;;;;4994337;28;20041;-74
2023/12/04 02:49:23;;;;;;;27.73;15.75;;;2.80;99.90;;;;;;4994913;28;20026;-75
2023/12/04 02:51:48;;;;;;;27.27;15.52;;;2.80;99.90;;;;;;4994596;28;20109;-75
2023/12/04 02:54:14;;;;;;;28.23;15.60;;;2.80;99.90;;;;;;4994290;28;20026;-75
2023/12/04 02:56:39;;;;;;;27.38;15.90;;;2.80;99.90;;;;;;4992787;28;20313;-74
2023/12/04 02:59:05;;;;;;;24.98;14.60;;;2.80;99.90;;;;;;4994033;28;20521;-74
2023/12/04 03:01:30;;;;;;;27.05;15.35;;;2.80;99.90;;;;;;4992318;28;20458;-74
2023/12/04 03:03:56;;;;;;;28.40;14.88;;;2.80;99.90;;;;;;4993970;28;20032;-74
2023/12/04 03:06:22;;;;;;;28.23;15.75;;;2.80;99.90;;;;;;4994125;28;20076;-75
2023/12/04 03:08:48;;;;;;;26.30;14.98;;;2.80;99.90;;;;;;4994234;28;20105;-75
2023/12/04 03:11:14;;;;;;;25.63;14.90;;;2.70;99.90;;;;;;4992780;28;20037;-75
2023/12/04 03:13:39;;;;;;;26.65;14.82;;;2.80;99.90;;;;;;4992807;28;20382;-75
2023/12/04 03:16:05;;;;;;;27.08;14.25;;;2.80;99.90;;;;;;4994103;28;20454;-74
2023/12/04 03:18:31;;;;;;;26.67;14.90;;;2.80;99.90;;;;;;4994019;28;20050;-76
2023/12/04 03:20:56;;;;;;;25.58;14.05;;;2.80;99.90;;;;;;4993953;28;20108;-75
2023/12/04 03:23:22;;;;;;;25.73;14.82;;;2.80;99.90;;;;;;4994018;28;20022;-76
2023/12/04 03:25:47;;;;;;;25.50;13.88;;;2.80;99.90;;;;;;4993668;28;20054;-75
2023/12/04 03:28:15;;;;;;;25.48;13.85;;;2.80;99.90;;;;;;4993564;28;20081;-76
2023/12/04 03:30:43;;;;;;;27.13;13.57;;;2.80;99.90;;;;;;4993857;28;20018;-74
2023/12/04 03:33:09;;;;;;;25.33;14.82;;;2.90;99.90;;;;;;4991614;28;20039;-75
2023/12/04 03:35:34;;;;;;;26.38;14.77;;;2.90;99.90;;;;;;4992155;28;20073;-75
2023/12/04 03:38:00;;;;;;;24.73;13.50;;;2.90;99.90;;;;;;4993471;28;20089;-74
2023/12/04 03:40:26;;;;;;;23.77;13.13;;;2.90;99.90;;;;;;4992149;28;20482;-76
2023/12/04 03:42:51;;;;;;;25.48;13.55;;;2.90;99.90;;;;;;4993406;28;20027;-74
2023/12/04 03:45:17;;;;;;;25.55;13.82;;;2.90;99.90;;;;;;4993484;28;20030;-74
2023/12/04 03:47:42;;;;;;;24.58;13.35;;;2.90;99.90;;;;;;4992232;28;20094;-76
2023/12/04 03:50:08;;;;;;;22.50;12.95;;;2.80;99.90;;;;;;4992980;28;20058;-75
2023/12/04 03:52:34;;;;;;;24.67;13.35;;;2.90;99.90;;;;;;4993118;28;20039;-75
2023/12/04 03:54:59;;;;;;;23.48;12.50;;;2.80;99.90;;;;;;4991912;28;20026;-73
2023/12/04 03:57:25;;;;;;;22.70;12.02;;;2.80;99.90;;;;;;4987693;28;20075;-74
2023/12/04 03:59:50;;;;;;;24.85;13.25;;;2.80;99.90;;;;;;4989220;28;20152;-74
2023/12/04 04:02:16;;;;;;;23.55;12.23;;;2.80;99.90;;;;;;4992926;28;20023;-74
2023/12/04 04:04:41;;;;;;;22.92;12.45;;;2.80;99.90;;;;;;4992810;28;20470;-75
2023/12/04 04:07:07;;;;;;;23.10;12.30;;;2.80;99.90;;;;;;4992898;28;20026;-75
2023/12/04 04:09:32;;;;;;;24.42;13.18;;;2.80;99.90;;;;;;4992477;28;20497;-76
2023/12/04 04:11:58;;;;;;;23.55;12.60;;;2.80;99.90;;;;;;4993310;28;20555;-75
2023/12/04 04:14:24;;;;;;;21.95;11.98;;;2.80;99.90;;;;;;4994659;28;20521;-75
2023/12/04 04:16:50;;;;;;;22.77;11.75;;;2.80;99.90;;;;;;4997336;28;20158;-73
2023/12/04 04:19:15;;;;;;;23.20;12.40;;;2.80;99.90;;;;;;4996033;28;20113;-75
2023/12/04 04:21:41;;;;;;;22.08;12.25;;;2.80;99.90;;;;;;4996691;28;20026;-75
2023/12/04 04:24:07;;;;;;;23.42;12.07;;;2.80;99.90;;;;;;4996961;28;20038;-75
2023/12/04 04:26:32;;;;;;;28.17;12.93;;;2.80;99.90;;;;;;4997100;28;20062;-76
2023/12/04 04:28:59;;;;;;;23.75;13.20;;;2.80;99.90;;;;;;4996845;28;20339;-75
2023/12/04 04:31:25;;;;;;;23.90;12.35;;;2.80;99.90;;;;;;4995083;28;20425;-75
2023/12/04 04:33:50;;;;;;;24.48;12.95;;;2.80;99.90;;;;;;4997339;28;20089;-74
2023/12/04 04:36:16;;;;;;;24.52;12.48;;;2.80;99.90;;;;;;4995512;28;20508;-75
2023/12/04 04:38:41;;;;;;;24.10;12.55;;;2.70;99.90;;;;;;4996634;28;20042;-75
2023/12/04 04:41:12;;;;;;;37.50;14.20;;;2.70;99.90;;;;;;4992773;28;20035;-75
2023/12/04 04:43:38;;;;;;;40.63;14.15;;;2.70;99.90;;;;;;4977831;28;20042;-75
2023/12/04 04:46:03;;;;;;;30.77;14.80;;;2.70;99.90;;;;;;4977308;28;20035;-76
2023/12/04 04:48:29;;;;;;;26.08;12.93;;;2.70;99.90;;;;;;4976903;28;20035;-75
2023/12/04 04:50:55;;;;;;;22.85;12.40;;;2.70;99.90;;;;;;4976916;28;20023;-74
2023/12/04 04:53:20;;;;;;;24.27;12.95;;;2.70;99.90;;;;;;4976861;28;20031;-74
2023/12/04 04:55:46;;;;;;;89.10;58.30;;;2.70;99.90;;;;;;4981978;28;20089;-75
2023/12/04 04:58:11;;;;;;;22.80;12.75;;;2.70;99.90;;;;;;4995843;28;20133;-75
2023/12/04 05:00:37;;;;;;;27.27;12.98;;;2.70;99.90;;;;;;4996283;28;20026;-74
2023/12/04 05:03:03;;;;;;;22.80;13.02;;;2.80;99.90;;;;;;4996176;28;20082;-75
2023/12/04 05:05:28;;;;;;;24.77;13.23;;;2.80;99.90;;;;;;4996487;28;20022;-74
2023/12/04 05:07:54;;;;;;;25.55;13.07;;;2.80;99.90;;;;;;4996103;28;20057;-75
2023/12/04 05:10:19;;;;;;;23.13;12.40;;;2.80;99.90;;;;;;4994453;28;20030;-75
2023/12/04 05:12:45;;;;;;;22.90;11.98;;;2.80;99.90;;;;;;4996337;28;20113;-75
2023/12/04 05:15:10;;;;;;;24.38;12.45;;;2.80;99.90;;;;;;4994770;28;20026;-75
2023/12/04 05:17:36;;;;;;;26.83;13.05;;;2.80;99.90;;;;;;4996072;28;20030;-75
2023/12/04 05:20:02;;;;;;;23.10;13.50;;;2.80;99.90;;;;;;4995070;28;20442;-75
2023/12/04 05:22:27;;;;;;;21.52;11.90;;;2.90;99.90;;;;;;4996029;28;20028;-74
2023/12/04 05:24:53;;;;;;;24.25;12.38;;;2.90;99.90;;;;;;4992506;28;20038;-75
2023/12/04 05:27:18;;;;;;;21.60;11.70;;;2.90;99.90;;;;;;4995925;28;20023;-73
2023/12/04 05:29:44;;;;;;;23.75;12.38;;;2.90;99.90;;;;;;4996193;28;20105;-74
2023/12/04 05:32:09;;;;;;;22.42;12.05;;;2.90;99.90;;;;;;5011188;28;20030;-74
2023/12/04 05:34:35;;;;;;;21.95;12.18;;;2.90;99.90;;;;;;4996028;28;20040;-73
2023/12/04 05:37:00;;;;;;;23.00;12.70;;;2.90;99.90;;;;;;4995472;28;20359;-75
2023/12/04 05:39:26;;;;;;;22.00;11.75;;;2.90;99.90;;;;;;4994556;28;20533;-75
2023/12/04 05:41:51;;;;;;;21.38;11.38;;;2.90;99.90;;;;;;4994355;28;20034;-76
2023/12/04 05:44:17;;;;;;;22.15;12.25;;;2.90;99.90;;;;;;4995946;28;20041;-77
2023/12/04 05:46:42;;;;;;;22.65;12.70;;;2.90;99.90;;;;;;4994003;28;20121;-74
2023/12/04 05:49:08;;;;;;;23.48;12.82;;;3.00;99.90;;;;;;4995550;28;20027;-74
2023/12/04 05:51:34;;;;;;;24.00;12.93;;;3.00;99.90;;;;;;4994434;28;20033;-74
2023/12/04 05:53:59;;;;;;;21.70;11.77;;;3.00;99.90;;;;;;4995496;28;20030;-75
2023/12/04 05:56:25;;;;;;;23.45;12.27;;;3.00;99.90;;;;;;4994069;28;20054;-76
2023/12/04 05:58:50;;;;;;;22.27;11.60;;;3.00;99.90;;;;;;4995380;28;20053;-72
2023/12/04 06:01:16;;;;;;;23.25;12.50;;;3.00;99.90;;;;;;4995482;28;20038;-75
2023/12/04 06:03:41;;;;;;;23.58;12.52;;;3.00;99.90;;;;;;4992733;28;20030;-73
2023/12/04 06:06:07;;;;;;;22.40;11.73;;;3.10;99.90;;;;;;4994917;28;20034;-73
2023/12/04 06:08:33;;;;;;;22.00;11.88;;;3.10;99.90;;;;;;4991867;28;20026;-73
2023/12/04 06:10:58;;;;;;;23.17;12.68;;;3.10;99.90;;;;;;4993022;28;20034;-74
2023/12/04 06:13:24;;;;;;;24.73;12.57;;;3.20;99.90;;;;;;4995120;28;20395;-74
2023/12/04 06:15:49;;;;;;;22.20;11.57;;;3.20;99.90;;;;;;4995001;28;20038;-75
2023/12/04 06:18:15;;;;;;;20.85;11.52;;;3.20;99.90;;;;;;4995009;28;20034;-74
2023/12/04 06:20:40;;;;;;;20.98;12.02;;;3.20;99.90;;;;;;4993572;28;20483;-74
2023/12/04 06:23:06;;;;;;;21.35;12.43;;;3.20;99.90;;;;;;4994445;28;20041;-75
2023/12/04 06:25:32;;;;;;;21.83;11.50;;;3.30;99.90;;;;;;4994885;28;20030;-75
2023/12/04 06:27:58;;;;;;;22.40;12.55;;;3.30;99.90;;;;;;4994822;28;20045;-75
2023/12/04 06:30:24;;;;;;;26.55;14.95;;;3.30;99.90;;;;;;4993869;28;20045;-75
2023/12/04 06:32:51;;;;;;;23.20;12.15;;;3.30;99.90;;;;;;4994858;28;20022;-76
2023/12/04 06:35:17;;;;;;;21.92;11.95;;;3.30;99.90;;;;;;4993234;28;20026;-75
2023/12/04 06:37:44;;;;;;;20.35;11.55;;;3.30;99.90;;;;;;4993343;28;20048;-75
2023/12/04 06:40:11;;;;;;;21.13;11.68;;;3.30;99.90;;;;;;4994572;28;20501;-75
2023/12/04 06:42:37;;;;;;;21.77;11.63;;;3.30;99.90;;;;;;4992472;28;20102;-75
2023/12/04 06:45:03;;;;;;;20.73;11.02;;;3.30;99.90;;;;;;4993160;28;20081;-74
2023/12/04 06:47:31;;;;;;;21.75;12.40;;;3.30;99.90;;;;;;4993922;28;20054;-74
2023/12/04 06:49:57;;;;;;;20.83;11.60;;;3.30;99.90;;;;;;4994764;28;20117;-74
2023/12/04 06:52:22;;;;;;;22.20;12.02;;;3.30;99.90;;;;;;4994350;28;20120;-76
2023/12/04 06:54:48;;;;;;;22.98;11.60;;;3.30;99.90;;;;;;4994847;28;20118;-75
2023/12/04 06:57:14;;;;;;;22.85;12.13;;;3.30;99.90;;;;;;4994507;28;20050;-75
2023/12/04 06:59:43;;;;;;;21.05;11.90;;;3.20;99.90;;;;;;4993035;28;20030;-75
2023/12/04 07:02:09;;;;;;;28.35;15.75;;;3.20;99.90;;;;;;4993577;28;20415;-73
2023/12/04 07:04:34;;;;;;;21.88;11.68;;;3.20;99.90;;;;;;4992850;28;20060;-75
2023/12/04 07:07:04;;;;;;;20.45;11.30;;;3.20;99.90;;;;;;4994292;28;20034;-75
2023/12/04 07:09:36;;;;;;;22.15;11.23;;;3.20;99.90;;;;;;4994161;28;20471;-73
2023/12/04 07:12:02;;;;;;;;;;;3.20;99.90;;;;;;4992351;28;20030;-75
2023/12/04 07:14:28;;;;;;;21.05;10.93;;;3.20;99.90;;;;;;4993838;28;19905;-73
2023/12/04 07:16:54;;;;;;;18.45;10.10;;;3.10;99.90;;;;;;4983246;28;20394;-74
2023/12/04 07:19:19;;;;;;;20.60;10.48;;;3.20;99.90;;;;;;4987534;28;20034;-73
2023/12/04 07:21:45;;;;;;;22.83;11.77;;;3.20;99.90;;;;;;4992566;28;20023;-75
2023/12/04 07:24:10;;;;;;;21.23;11.50;;;3.20;99.90;;;;;;4985431;28;20788;-74
2023/12/04 07:26:36;;;;;;;19.02;10.82;;;3.20;99.90;;;;;;4992733;28;20073;-74
2023/12/04 07:29:03;;;;;;;20.58;10.98;;;3.20;99.90;;;;;;4993444;28;20417;-75
2023/12/04 07:31:28;;;;;;;19.55;10.75;;;3.30;99.90;;;;;;4992723;28;20026;-75
2023/12/04 07:33:54;;;;;;;17.92;10.15;;;3.30;99.90;;;;;;4991614;28;20034;-75
2023/12/04 07:36:20;;;;;;;22.13;10.35;;;3.20;99.90;;;;;;4991769;28;20390;-75
2023/12/04 07:38:46;;;;;;;21.58;10.85;;;3.30;99.90;;;;;;4992952;28;20038;-75
2023/12/04 07:41:11;;;;;;;20.85;11.27;;;3.30;99.90;;;;;;4991765;28;20037;-75
2023/12/04 07:43:37;;;;;;;20.85;11.13;;;3.30;99.90;;;;;;4990755;28;20032;-74
2023/12/04 07:46:03;;;;;;;20.33;11.35;;;3.30;99.90;;;;;;4993224;28;20148;-74
2023/12/04 07:48:30;;;;;;;21.05;10.98;;;3.30;99.90;;;;;;4992332;28;20027;-74
2023/12/04 07:50:55;;;;;;;20.75;11.13;;;3.30;99.90;;;;;;4992622;28;20116;-75
2023/12/04 07:53:21;;;;;;;21.75;11.68;;;3.30;99.90;;;;;;4993413;28;20521;-75
2023/12/04 07:55:48;;;;;;;19.77;11.02;;;3.30;99.90;;;;;;4992789;28;20057;-75
2023/12/04 07:58:13;;;;;;;22.13;12.23;;;3.30;99.90;;;;;;4992977;28;20486;-74
2023/12/04 08:00:39;;;;;;;20.17;11.73;;;3.30;99.90;;;;;;4988998;28;20038;-74
2023/12/04 08:03:05;;;;;;;21.25;10.48;;;3.30;99.90;;;;;;4993249;28;20459;-73
2023/12/04 08:05:31;;;;;;;20.77;10.90;;;3.30;99.90;;;;;;4992444;28;20026;-74
2023/12/04 08:07:57;;;;;;;20.58;11.43;;;3.30;99.90;;;;;;4993200;28;20057;-73
2023/12/04 08:10:23;;;;;;;19.52;10.90;;;3.30;99.90;;;;;;4993067;28;20069;-74
2023/12/04 08:12:48;;;;;;;20.95;10.85;;;3.40;99.90;;;;;;4993311;28;20022;-74
2023/12/04 08:15:14;;;;;;;19.27;11.15;;;3.40;99.90;;;;;;4993102;28;20037;-72
2023/12/04 08:17:40;;;;;;;18.83;10.43;;;3.40;99.90;;;;;;4991669;28;20049;-74
2023/12/04 08:20:06;;;;;;;20.65;10.93;;;3.50;99.90;;;;;;4993239;28;20022;-75
2023/12/04 08:22:32;;;;;;;27.23;14.80;;;3.50;99.90;;;;;;4993076;28;20386;-74
2023/12/04 08:24:58;;;;;;;20.15;11.07;;;3.50;99.90;;;;;;4990644;28;20026;-74
2023/12/04 08:27:24;;;;;;;19.83;11.15;;;3.60;99.90;;;;;;4991335;28;20178;-77
2023/12/04 08:29:50;;;;;;;39.92;26.77;;;3.70;99.90;;;;;;4991979;28;20022;-74
2023/12/04 08:32:15;;;;;;;19.58;10.38;;;3.70;99.90;;;;;;4990304;28;20049;-74
2023/12/04 08:34:41;;;;;;;19.83;11.52;;;3.70;99.90;;;;;;4990592;28;20061;-74
2023/12/04 08:37:06;;;;;;;19.40;10.45;;;3.80;99.90;;;;;;4989088;28;20394;-74
2023/12/04 08:39:32;;;;;;;16.63;9.82;;;3.80;99.90;;;;;;4992144;28;20034;-75
2023/12/04 08:41:58;;;;;;;20.30;11.10;;;3.90;99.90;;;;;;4992250;28;20065;-74
2023/12/04 08:44:23;;;;;;;19.38;10.55;;;3.90;99.90;;;;;;4990431;28;20109;-74
2023/12/04 08:46:49;;;;;;;18.42;9.77;;;3.90;99.90;;;;;;4992453;28;20037;-75
2023/12/04 08:49:15;;;;;;;19.00;9.85;;;4.00;99.90;;;;;;4987504;28;20033;-75
2023/12/04 08:51:40;;;;;;;17.38;9.50;;;4.10;99.90;;;;;;4991746;28;20467;-74
2023/12/04 08:54:07;;;;;;;17.40;9.80;;;4.10;99.90;;;;;;4991597;28;20109;-74
2023/12/04 08:56:32;;;;;;;17.33;9.05;;;4.10;99.90;;;;;;4990859;28;20050;-73
2023/12/04 08:58:58;;;;;;;18.02;9.40;;;4.10;99.90;;;;;;4990280;28;20053;-74
2023/12/04 09:01:24;;;;;;;17.00;9.80;;;4.10;99.90;;;;;;4993877;28;20542;-75
2023/12/04 09:03:50;;;;;;;16.27;8.73;;;4.10;99.90;;;;;;4995303;28;20022;-75
2023/12/04 09:06:15;;;;;;;14.80;8.30;;;4.10;99.90;;;;;;4995419;28;20105;-74
2023/12/04 09:08:41;;;;;;;17.40;8.68;;;4.10;99.90;;;;;;4995366;28;20105;-74
2023/12/04 09:11:07;;;;;;;30.42;17.70;;;4.10;99.90;;;;;;4994112;28;20470;-73
2023/12/04 09:13:33;;;;;;;15.82;8.77;;;4.20;99.90;;;;;;4995212;28;20027;-75
2023/12/04 09:15:59;;;;;;;15.90;8.50;;;4.20;99.90;;;;;;4995623;28;20046;-73
2023/12/04 09:18:25;;;;;;;16.73;8.85;;;4.30;99.90;;;;;;4995630;28;20423;-74
2023/12/04 09:20:51;;;;;;;15.45;8.20;;;4.30;99.90;;;;;;4992924;28;20045;-74
2023/12/04 09:23:16;;;;;;;19.35;11.57;;;4.30;99.90;;;;;;4996343;28;20037;-75
2023/12/04 09:25:42;;;;;;;14.63;7.97;;;4.40;99.90;;;;;;5000539;28;20026;-74
2023/12/04 09:28:08;;;;;;;15.80;8.50;;;4.40;99.90;;;;;;4999412;28;20141;-74
2023/12/04 09:30:35;;;;;;;14.73;8.77;;;4.50;99.90;;;;;;5003375;28;20053;-74
2023/12/04 09:33:01;;;;;;;16.70;8.15;;;4.50;99.90;;;;;;4999464;28;20050;-74
2023/12/04 09:35:26;;;;;;;13.60;7.13;;;4.60;99.90;;;;;;5000938;28;20046;-74
2023/12/04 09:37:52;;;;;;;14.82;7.75;;;4.60;99.90;;;;;;5003659;28;20034;-74
2023/12/04 09:40:18;;;;;;;15.15;7.85;;;4.60;99.90;;;;;;5000851;28;20018;-75
2023/12/04 09:42:44;;;;;;;14.07;8.35;;;4.70;99.90;;;;;;5000145;28;20072;-74
2023/12/04 09:45:10;;;;;;;15.80;8.93;;;4.70;99.90;;;;;;4999706;28;20061;-73
2023/12/04 09:47:36;;;;;;;16.13;8.57;;;4.80;99.90;;;;;;4997841;28;20065;-74
2023/12/04 09:50:02;;;;;;;14.95;8.15;;;4.80;99.90;;;;;;5000825;28;20046;-74
2023/12/04 09:52:28;;;;;;;15.70;7.80;;;4.80;99.90;;;;;;5000872;28;20089;-73
2023/12/04 09:54:53;;;;;;;17.33;8.88;;;4.80;99.90;;;;;;4994945;28;20030;-74
2023/12/04 09:57:21;;;;;;;15.90;8.52;;;4.80;99.90;;;;;;4994687;28;20081;-75
2023/12/04 09:59:48;;;;;;;14.57;8.23;;;4.70;99.90;;;;;;4993856;28;20425;-73
2023/12/04 10:02:14;;;;;;;15.35;8.18;;;4.70;99.90;;;;;;4994075;28;20117;-73
2023/12/04 10:04:41;;;;;;;16.20;8.50;;;4.70;99.90;;;;;;4992383;28;20448;-76
2023/12/04 10:07:06;;;;;;;16.38;8.52;;;4.70;99.90;;;;;;4992744;28;20137;-75
2023/12/04 10:09:32;;;;;;;16.95;8.88;;;4.60;99.90;;;;;;4996312;28;20030;-74
2023/12/04 10:11:58;;;;;;;16.88;9.10;;;4.60;99.90;;;;;;4992391;28;20106;-74
2023/12/04 10:14:23;;;;;;;17.42;8.70;;;4.60;99.90;;;;;;4994804;28;20038;-73
2023/12/04 10:16:55;;;;;;;17.35;9.32;;;4.60;99.90;;;;;;4992301;28;20065;-75
2023/12/04 10:19:29;;;;;;;16.95;8.30;;;4.70;99.90;;;;;;4992560;28;20070;-75
2023/12/04 10:21:58;;;;;;;15.75;8.90;;;4.70;99.90;;;;;;4992609;28;20426;-74
2023/12/04 10:24:35;;;;;;;16.35;8.45;;;4.70;99.90;;;;;;4992866;28;20034;-73
2023/12/04 10:27:01;;;;;;;17.45;9.65;;;4.70;99.90;;;;;;4994350;28;20065;-75
2023/12/04 10:29:30;;;;;;;13.82;8.00;;;4.60;99.90;;;;;;4994294;28;20026;-75
2023/12/04 10:31:58;;;;;;;16.48;8.65;;;4.70;99.90;;;;;;4994133;28;20026;-74
2023/12/04 10:34:26;;;;;;;15.27;7.95;;;4.70;99.90;;;;;;4993212;28;20065;-75
2023/12/04 10:36:51;;;;;;;17.35;8.32;;;4.70;99.90;;;;;;4993724;28;20426;-72
2023/12/04 10:39:17;;;;;;;15.57;8.32;;;4.70;99.90;;;;;;4991566;28;20034;-75
2023/12/04 10:41:44;;;;;;;17.10;8.93;;;4.70;99.90;;;;;;4993095;28;20378;-74
2023/12/04 10:44:09;;;;;;;18.35;8.15;;;4.80;99.90;;;;;;4991134;28;20081;-73
2023/12/04 10:46:36;;;;;;;15.65;8.38;;;4.80;99.90;;;;;;4991442;28;20034;-75
2023/12/04 10:49:04;;;;;;;14.48;7.93;;;4.80;99.90;;;;;;5001070;28;20091;-74
2023/12/04 10:51:30;;;;;;;13.80;7.78;;;4.90;99.90;;;;;;4993633;28;20030;-74
2023/12/04 10:53:56;;;;;;;14.48;7.85;;;5.00;99.90;;;;;;4993808;28;20068;-74
2023/12/04 10:56:31;;;;;;;14.80;7.78;;;5.00;99.90;;;;;;4993730;28;20046;-75
2023/12/04 10:58:59;;;;;;;15.57;8.32;;;5.10;99.90;;;;;;4993355;28;20512;-74
2023/12/04 11:01:25;;;;;;;14.55;7.60;;;5.20;99.90;;;;;;4994013;28;20034;-74
2023/12/04 11:03:54;;;;;;;13.05;7.18;;;5.30;99.90;;;;;;4994706;28;20037;-74
2023/12/04 11:06:21;;;;;;;14.38;7.28;;;5.40;99.90;;;;;;4992534;28;20694;-74
2023/12/04 11:08:52;;;;;;;16.73;7.78;;;5.50;99.90;;;;;;4994089;28;20049;-74
2023/12/04 11:11:27;;;;;;;12.83;7.10;;;5.60;99.90;;;;;;4989884;28;20879;-74
2023/12/04 11:13:57;;;;;;;15.40;7.70;;;5.60;99.90;;;;;;4992054;28;20014;-75
2023/12/04 11:16:53;;;;;;;12.98;7.55;;;5.70;99.90;;;;;;4992553;28;20038;-76
2023/12/04 11:19:58;;;;;;;15.60;7.68;;;5.70;99.90;;;;;;4990657;28;20031;-74
2023/12/04 11:22:25;;;;;;;15.07;7.53;;;5.70;99.90;;;;;;4988828;28;20093;-72
2023/12/04 11:24:51;;;;;;;12.55;7.05;;;5.70;99.90;;;;;;4991602;28;20041;-73
2023/12/04 11:27:18;;;;;;;14.90;7.80;;;5.80;99.90;;;;;;4992316;28;20347;-74
2023/12/04 11:29:48;;;;;;;14.75;7.47;;;5.70;99.90;;;;;;4992116;28;20027;-73
2023/12/04 11:32:18;;;;;;;13.15;7.20;;;5.80;99.90;;;;;;4989056;28;20033;-74
2023/12/04 11:34:58;;;;;;;13.80;7.30;;;5.70;99.90;;;;;;4987624;28;20025;-74
2023/12/04 11:37:24;;;;;;;15.77;7.63;;;5.70;99.90;;;;;;4992433;28;20027;-73
2023/12/04 11:39:50;;;;;;;13.13;7.07;;;5.80;99.90;;;;;;4990316;28;20033;-73
2023/12/04 11:42:23;;;;;;;13.18;7.45;;;5.80;99.90;;;;;;4990799;28;20447;-73
2023/12/04 11:44:55;;;;;;;13.45;7.00;;;5.70;99.90;;;;;;4993966;28;20034;-73
2023/12/04 11:47:21;;;;;;;14.88;7.90;;;5.70;99.90;;;;;;4991967;28;20030;-72
2023/12/04 11:49:46;;;;;;;13.18;7.35;;;5.70;99.90;;;;;;4993554;28;20037;-73
2023/12/04 11:52:12;;;;;;;13.75;7.38;;;5.70;99.90;;;;;;4993308;28;20030;-73
2023/12/04 11:54:58;;;;;;;14.02;7.53;;;5.60;99.90;;;;;;4993502;28;20022;-73
2023/12/04 11:57:25;;;;;;;15.43;7.57;;;5.60;99.90;;;;;;4993408;28;20086;-73
2023/12/04 11:59:52;;;;;;;12.98;7.50;;;5.60;99.90;;;;;;4992464;28;20113;-73
2023/12/04 12:02:17;;;;;;;14.20;7.93;;;5.50;99.90;;;;;;4991800;28;20045;-73
2023/12/04 12:04:44;;;;;;;15.45;7.70;;;5.50;99.90;;;;;;4991905;28;20101;-73
2023/12/04 12:07:11;;;;;;;14.98;8.15;;;5.50;99.90;;;;;;4993507;28;20027;-74
2023/12/04 12:09:37;;;;;;;13.73;7.57;;;5.60;99.90;;;;;;4993001;28;20263;-72
2023/12/04 12:12:03;;;;;;;16.80;7.90;;;5.60;99.90;;;;;;4988332;28;20026;-74
2023/12/04 12:14:30;;;;;;;17.33;8.68;;;5.70;99.90;;;;;;4992798;28;20037;-73
2023/12/04 12:16:58;;;;;;;14.32;7.68;;;5.70;99.90;;;;;;4990689;28;20463;-73
2023/12/04 12:19:24;;;;;;;14.07;8.13;;;5.80;99.90;;;;;;4992913;28;20037;-73
2023/12/04 12:21:51;;;;;;;14.15;8.20;;;5.70;99.90;;;;;;4993349;28;20394;-74
2023/12/04 12:24:18;;;;;;;14.10;8.10;;;5.80;99.90;;;;;;4993347;28;20034;-73
2023/12/04 12:26:44;;;;;;;18.95;8.82;;;5.70;99.90;;;;;;4992994;28;20029;-72
2023/12/04 12:29:10;;;;;;;19.00;9.38;;;5.70;99.90;;;;;;4993311;28;20382;-73
2023/12/04 12:31:36;;;;;;;15.15;8.73;;;5.60;99.90;;;;;;4988822;28;20035;-74
2023/12/04 12:34:02;;;;;;;15.18;8.27;;;5.70;99.90;;;;;;4989159;28;20359;-74
2023/12/04 12:36:28;;;;;;;16.65;8.88;;;5.70;99.90;;;;;;4995074;28;20045;-73